Cressey, CA (95312)

9:45 AM PDT on August 28, 2014 (GMT -0700)
Ballico Weather | Change Station
CLOSE
Current Station
Personal Weather Station
Location: Ballico, CA
Elevation: 164 ft
Nearby Weather Stations

Elev 164 ft 37.43 °N, 120.72 °W | Updated 4 seconds ago

Clear
Clear
77.9 °F
Feels Like 79 °F
N
2.0
Wind Variable Wind from WNW
Gusts 7.0 mph

Today
High -- | Low -- °F
--% Chance of Precip.
Yesterday
High -- | Low -- °F
Precip. -- in
6:29 AM 7:36 PM
Waxing Crescent, 9% visible
Pressure 30.02 in
Visibility 10.0 miles
Clouds Clear
Heat Index 79 °F
Dew Point 56 °F
Humidity 47%
Rainfall 0.00 in
Snow Depth Not available.
UV 2 out of 12
Pollen 9.10 out of 12
Air Quality Not available.
Flu Activity Not available.
METAR KMER 281545Z 34006KT 10SM SKC 25/10 A3002

More Conditions Fewer Conditions

Pressure 30.02 in
Visibility 10.0 miles
Clouds Clear
Heat Index 79 °F
Dew Point 56 °F
Humidity 47%
Rainfall 0.00 in
Snow Depth Not available.
UV 2 out of 12
Pollen 9.10 out of 12
Air Quality Not available.
Flu Activity Not available.
METAR KMER 281545Z 34006KT 10SM SKC 25/10 A3002

More Conditions Fewer Conditions

10-Day Weather Forecast

Almanac

Astronomy

Aug. 28, 2014 Rise Set
Actual Time 6:29 AM PDT 7:36 PM PDT
Civil Twilight 6:02 AM PDT 8:03 PM PDT
Nautical Twilight 5:30 AM PDT 8:35 PM PDT
Astronomical Twilight 4:57 AM PDT 9:09 PM PDT
Moon 9:22 AM PDT 9:08 PM PDT
Length of Visible Light 14h 01m
Length of Day
13h 07m
Tomorrow will be 2m 16s shorter.
Waxing Crescent, 9% of the Moon is Illuminated
Today
Waxing Crescent
Sep 2
First Quarter
Sep 8
Full
Sep 15
Last Quarter
Sep 24
New

Today's Extremes

State Highs State Lows

Community

WunderPhotos

Upload Photos

1,748,013 photos uploaded!

Nearby

Air Quality

  Air Quality AQ Index Pollutant
Thursday Unhealthy for Sensitive Groups
OZONE
Friday Unhealthy for Sensitive Groups
OZONE
Saturday Unhealthy for Sensitive Groups
OZONE
Sunday Unhealthy for Sensitive Groups
OZONE
Monday Unhealthy for Sensitive Groups
OZONE

Snow Depth

Station Depth Elevation
Sonora Pass 0 in 8800 ft
Blue Lakes 0 in 8000 ft
Summit Meadow 0 in 9122 ft
Forestdale Creek 0 in 8029 ft
Monitor Pass 0 in 8350 ft

Earthquake Activity

City Distance Mag. Time & Date
Napa, California 111 miles 2.6 11:57 AM PDT
2014-08-27
Soledad, California 65 miles 2.6 12:15 PM PDT
2014-08-26
Napa, California 110 miles 2.5 10:56 AM PDT
2014-08-26
Napa, California 110 miles 3.0 6:45 AM PDT
2014-08-26
Minimum magnitude displayed is 2.5.

Coastal Water Temperatures

Place Temperature
No Stations Reporting

Nearby Weather Stations